PWSweather.com
Personal Weather Stations
Station Observations
KAZSIERR7
Canyon De Flores, Sierra Vista, AZ 85650

Canyon De FloresSierra Vista, AZ 85650

Lat: 31.5, Lon: -110.26

Elevation: 4645

Station Type: LaCrosse WS-3610 & Boltek Lightning Detector

http://www.lightningring.com/weather/

Latest ConditionsUpdated 11:38:41 PM MST Thursday, Apr 24, 2014
Currently Today's Max Today's Min Today's Average
Temperature 57.7°F14.3°C 83.8°F28.8°C 41.8°F5.4°C 66.1°F18.9°C
Dew Point 14.4°F-9.8°C 27.6°F-2.4°C 12.1°F-11.1°C 17.3°F-8.2°C
Winds Calm Calm 7.1 mph WNW11.4 kmh WNW - 1.4 mph 2.3 kmh
Wind Gusts -- 72.4 mph116.5 kmh - -
Humidity 18% 38% 8% 17%
Pressure 30.02 in1016.6 mb 30.07 in1018.3 mb 29.98 in1015.2 mb -
Hour Temp Dew Point Humidity Winds Wind Gusts Pressure Precip Precip Rate Daily Precip Total
11:38 PM 57.7°F14.3°C 14.4°F-9.8°C 18% Calm Calm -- 30.02 in1016.6 mb 0.00 in0.0 mm 0.00 in/hr0.0 mm/hr 0.00 in0.0 mm
11:28 PM 57.1°F13.9°C 13.9°F-10.1°C 18% Calm Calm -- 30.02 in1016.6 mb 0.00 in0.0 mm 0.00 in/hr0.0 mm/hr 0.00 in0.0 mm
11:17 PM 58.9°F14.9°C 14.1°F-9.9°C 17% Calm Calm -- 30.02 in1016.6 mb 0.00 in0.0 mm 0.00 in/hr0.0 mm/hr 0.00 in0.0 mm
11:07 PM 60.0°F15.6°C 13.6°F-10.2°C 16% Calm Calm -- 30.02 in1016.6 mb 0.00 in0.0 mm 0.00 in/hr0.0 mm/hr 0.00 in0.0 mm
10:56 PM 60.4°F15.8°C 13.9°F-10.1°C 16% Calm Calm -- 30.03 in1016.9 mb 0.00 in0.0 mm 0.00 in/hr0.0 mm/hr 0.00 in0.0 mm
10:46 PM 62.0°F16.7°C 12.1°F-11.1°C 14% Calm Calm -- 30.02 in1016.6 mb 0.00 in0.0 mm 0.00 in/hr0.0 mm/hr 0.00 in0.0 mm
10:35 PM 62.2°F16.8°C 12.3°F-10.9°C 14% Calm Calm -- 30.02 in1016.6 mb 0.00 in0.0 mm 0.00 in/hr0.0 mm/hr 0.00 in0.0 mm
10:25 PM 62.5°F16.9°C 12.5°F-10.8°C 14% Calm Calm -- 30.02 in1016.6 mb 0.00 in0.0 mm 0.00 in/hr0.0 mm/hr 0.00 in0.0 mm
10:14 PM 60.7°F15.9°C 14.2°F-9.9°C 16% Calm Calm -- 30.02 in1016.6 mb 0.00 in0.0 mm 0.00 in/hr0.0 mm/hr 0.00 in0.0 mm
10:04 PM 60.9°F16.1°C 14.3°F-9.8°C 16% Calm Calm -- 30.02 in1016.6 mb 0.00 in0.0 mm 0.00 in/hr0.0 mm/hr 0.00 in0.0 mm
09:53 PM 60.7°F15.9°C 15.6°F-9.1°C 17% Calm Calm -- 30.03 in1016.9 mb 0.00 in0.0 mm 0.00 in/hr0.0 mm/hr 0.00 in0.0 mm
09:43 PM 62.0°F16.7°C 16.6°F-8.6°C 17% Calm Calm 2.2 mph3.5 kmh 30.03 in1016.9 mb 0.00 in0.0 mm 0.00 in/hr0.0 mm/hr 0.00 in0.0 mm
09:33 PM 60.2°F15.7°C 16.5°F-8.6°C 18% 1.7 mph ENE2.7 kmh ENE 2.2 mph3.5 kmh 30.03 in1016.9 mb 0.00 in0.0 mm 0.00 in/hr0.0 mm/hr 0.00 in0.0 mm
09:22 PM 61.6°F16.4°C 16.3°F-8.7°C 17% Calm Calm -- 30.03 in1016.9 mb 0.00 in0.0 mm 0.00 in/hr0.0 mm/hr 0.00 in0.0 mm
09:12 PM 60.9°F16.1°C 17.0°F-8.3°C 18% Calm Calm -- 30.03 in1016.9 mb 0.00 in0.0 mm 0.00 in/hr0.0 mm/hr 0.00 in0.0 mm
09:01 PM 59.8°F15.4°C 25.6°F-3.6°C 27% Calm Calm -- 30.03 in1016.9 mb 0.00 in0.0 mm 0.00 in/hr0.0 mm/hr 0.00 in0.0 mm
08:51 PM 59.7°F15.4°C 24.6°F-4.1°C 26% Calm Calm -- 30.03 in1016.9 mb 0.00 in0.0 mm 0.00 in/hr0.0 mm/hr 0.00 in0.0 mm
08:40 PM 61.1°F16.2°C 17.2°F-8.2°C 18% Calm Calm -- 30.03 in1016.9 mb 0.00 in0.0 mm 0.00 in/hr0.0 mm/hr 0.00 in0.0 mm
08:30 PM 62.0°F16.7°C 19.2°F-7.1°C 19% Calm Calm -- 30.02 in1016.6 mb 0.00 in0.0 mm 0.00 in/hr0.0 mm/hr 0.00 in0.0 mm
08:19 PM 63.1°F17.3°C 17.5°F-8.1°C 17% Calm Calm -- 30.02 in1016.6 mb 0.00 in0.0 mm 0.00 in/hr0.0 mm/hr 0.00 in0.0 mm
08:09 PM 64.0°F17.8°C 18.2°F-7.7°C 17% Calm Calm -- 30.01 in1016.3 mb 0.00 in0.0 mm 0.00 in/hr0.0 mm/hr 0.00 in0.0 mm
07:58 PM 64.9°F18.3°C 21.6°F-5.8°C 19% Calm Calm 4.8 mph7.7 kmh 30.01 in1016.3 mb 0.00 in0.0 mm 0.00 in/hr0.0 mm/hr 0.00 in0.0 mm
07:48 PM 65.4°F18.6°C 18.0°F-7.8°C 16% Calm Calm -- 30.01 in1016.3 mb 0.00 in0.0 mm 0.00 in/hr0.0 mm/hr 0.00 in0.0 mm
07:37 PM 64.9°F18.3°C 17.6°F-8.0°C 16% Calm Calm -- 30.01 in1016.3 mb 0.00 in0.0 mm 0.00 in/hr0.0 mm/hr 0.00 in0.0 mm
07:27 PM 66.1°F18.9°C 17.0°F-8.3°C 15% Calm Calm -- 30.01 in1016.3 mb 0.00 in0.0 mm 0.00 in/hr0.0 mm/hr 0.00 in0.0 mm
07:16 PM 66.7°F19.3°C 17.5°F-8.1°C 15% Calm Calm -- 30.00 in1015.9 mb 0.00 in0.0 mm 0.00 in/hr0.0 mm/hr 0.00 in0.0 mm
07:06 PM 67.9°F19.9°C 20.0°F-6.7°C 16% Calm Calm -- 30.00 in1015.9 mb 0.00 in0.0 mm 0.00 in/hr0.0 mm/hr 0.00 in0.0 mm
06:55 PM 69.8°F21.0°C 16.6°F-8.6°C 13% Calm Calm -- 30.00 in1015.9 mb 0.00 in0.0 mm 0.00 in/hr0.0 mm/hr 0.00 in0.0 mm
06:45 PM 70.7°F21.5°C 17.3°F-8.2°C 13% Calm Calm -- 29.99 in1015.6 mb 0.00 in0.0 mm 0.00 in/hr0.0 mm/hr 0.00 in0.0 mm
06:34 PM 71.7°F22.1°C 16.1°F-8.8°C 12% Calm Calm 7.0 mph11.3 kmh 29.99 in1015.6 mb 0.00 in0.0 mm 0.00 in/hr0.0 mm/hr 0.00 in0.0 mm
06:24 PM 73.3°F22.9°C 15.3°F-9.3°C 11% Calm Calm -- 29.99 in1015.6 mb 0.00 in0.0 mm 0.00 in/hr0.0 mm/hr 0.00 in0.0 mm
06:13 PM 76.3°F24.6°C 15.4°F-9.2°C 10% 1.7 mph WNW2.7 kmh WNW 6.2 mph10.0 kmh 29.99 in1015.6 mb 0.00 in0.0 mm 0.00 in/hr0.0 mm/hr 0.00 in0.0 mm
06:03 PM 78.1°F25.6°C 14.3°F-9.8°C 9% Calm Calm 1.2 mph1.9 kmh 29.99 in1015.6 mb 0.00 in0.0 mm 0.00 in/hr0.0 mm/hr 0.00 in0.0 mm
05:53 PM 79.0°F26.1°C 15.0°F-9.4°C 9% Calm Calm -- 29.99 in1015.6 mb 0.00 in0.0 mm 0.00 in/hr0.0 mm/hr 0.00 in0.0 mm
05:42 PM 79.8°F26.6°C 18.1°F-7.7°C 10% Calm Calm 4.8 mph7.7 kmh 29.99 in1015.6 mb 0.00 in0.0 mm 0.00 in/hr0.0 mm/hr 0.00 in0.0 mm
05:32 PM 80.1°F26.7°C 15.8°F-9.0°C 9% 0.6 mph WSW1.0 kmh WSW 5.8 mph9.3 kmh 29.99 in1015.6 mb 0.00 in0.0 mm 0.00 in/hr0.0 mm/hr 0.00 in0.0 mm
05:21 PM 80.3°F26.8°C 16.0°F-8.9°C 9% Calm Calm 8.8 mph14.2 kmh 29.98 in1015.2 mb 0.00 in0.0 mm 0.00 in/hr0.0 mm/hr 0.00 in0.0 mm
05:11 PM 80.5°F26.9°C 16.1°F-8.8°C 9% 2.1 mph W3.4 kmh W 47.8 mph76.9 kmh 29.99 in1015.6 mb 0.00 in0.0 mm 0.00 in/hr0.0 mm/hr 0.00 in0.0 mm
05:00 PM 81.2°F27.3°C 16.6°F-8.6°C 9% 2.6 mph W4.2 kmh W 37.4 mph60.2 kmh 29.99 in1015.6 mb 0.00 in0.0 mm 0.00 in/hr0.0 mm/hr 0.00 in0.0 mm
04:50 PM 81.7°F27.6°C 14.3°F-9.8°C 8% Calm Calm 7.6 mph12.2 kmh 29.99 in1015.6 mb 0.00 in0.0 mm 0.00 in/hr0.0 mm/hr 0.00 in0.0 mm
04:39 PM 82.4°F28.0°C 14.8°F-9.6°C 8% 5.7 mph WNW9.2 kmh WNW 7.6 mph12.2 kmh 29.99 in1015.6 mb 0.00 in0.0 mm 0.00 in/hr0.0 mm/hr 0.00 in0.0 mm
04:29 PM 82.8°F28.2°C 17.8°F-7.9°C 9% 3.3 mph NW5.3 kmh NW 4.4 mph7.1 kmh 29.99 in1015.6 mb 0.00 in0.0 mm 0.00 in/hr0.0 mm/hr 0.00 in0.0 mm
04:18 PM 80.5°F26.9°C 16.1°F-8.8°C 9% 5.7 mph SSW9.2 kmh SSW 10.2 mph16.4 kmh 29.99 in1015.6 mb 0.00 in0.0 mm 0.00 in/hr0.0 mm/hr 0.00 in0.0 mm
04:08 PM 82.9°F28.3°C 15.2°F-9.3°C 8% 0.9 mph W1.4 kmh W 4.0 mph6.4 kmh 29.99 in1015.6 mb 0.00 in0.0 mm 0.00 in/hr0.0 mm/hr 0.00 in0.0 mm
03:57 PM 83.2°F28.4°C 18.2°F-7.7°C 9% Calm Calm -- 29.99 in1015.6 mb 0.00 in0.0 mm 0.00 in/hr0.0 mm/hr 0.00 in0.0 mm
03:47 PM 83.3°F28.5°C 18.2°F-7.7°C 9% Calm Calm 1.2 mph1.9 kmh 29.99 in1015.6 mb 0.00 in0.0 mm 0.00 in/hr0.0 mm/hr 0.00 in0.0 mm
03:36 PM 82.5°F28.1°C 17.6°F-8.0°C 9% 5.7 mph W9.2 kmh W 41.0 mph66.0 kmh 29.99 in1015.6 mb 0.00 in0.0 mm 0.00 in/hr0.0 mm/hr 0.00 in0.0 mm
03:26 PM 82.2°F27.9°C 17.4°F-8.1°C 9% 5.2 mph W8.4 kmh W 51.4 mph82.7 kmh 29.99 in1015.6 mb 0.00 in0.0 mm 0.00 in/hr0.0 mm/hr 0.00 in0.0 mm
03:15 PM 82.1°F27.8°C 17.3°F-8.2°C 9% 4.6 mph W7.4 kmh W 31.2 mph50.2 kmh 29.99 in1015.6 mb 0.00 in0.0 mm 0.00 in/hr0.0 mm/hr 0.00 in0.0 mm
03:05 PM 82.2°F27.9°C 17.4°F-8.1°C 9% 7.1 mph WNW11.4 kmh WNW 49.2 mph79.2 kmh 29.99 in1015.6 mb 0.00 in0.0 mm 0.00 in/hr0.0 mm/hr 0.00 in0.0 mm
02:55 PM 83.0°F28.3°C 15.3°F-9.3°C 8% 6.0 mph SW9.7 kmh SW 51.8 mph83.4 kmh 29.99 in1015.6 mb 0.00 in0.0 mm 0.00 in/hr0.0 mm/hr 0.00 in0.0 mm
02:44 PM 83.4°F28.6°C 15.6°F-9.1°C 8% 6.6 mph WNW10.6 kmh WNW 8.8 mph14.2 kmh 29.99 in1015.6 mb 0.00 in0.0 mm 0.00 in/hr0.0 mm/hr 0.00 in0.0 mm
02:34 PM 83.3°F28.5°C 18.2°F-7.7°C 9% 0.3 mph W0.5 kmh W 27.6 mph44.4 kmh 29.99 in1015.6 mb 0.00 in0.0 mm 0.00 in/hr0.0 mm/hr 0.00 in0.0 mm
02:23 PM 82.2°F27.9°C 17.4°F-8.1°C 9% 4.9 mph W7.9 kmh W 6.6 mph10.6 kmh 29.99 in1015.6 mb 0.00 in0.0 mm 0.00 in/hr0.0 mm/hr 0.00 in0.0 mm
02:13 PM 81.8°F27.7°C 17.1°F-8.3°C 9% 6.2 mph NW10.0 kmh NW 46.4 mph74.7 kmh 30.00 in1015.9 mb 0.00 in0.0 mm 0.00 in/hr0.0 mm/hr 0.00 in0.0 mm
02:02 PM 83.8°F28.8°C 15.9°F-8.9°C 8% 2.3 mph SW3.7 kmh SW 5.8 mph9.3 kmh 30.00 in1015.9 mb 0.00 in0.0 mm 0.00 in/hr0.0 mm/hr 0.00 in0.0 mm
01:52 PM 82.6°F28.1°C 17.7°F-7.9°C 9% 2.2 mph NW3.5 kmh NW 43.2 mph69.5 kmh 30.00 in1015.9 mb 0.00 in0.0 mm 0.00 in/hr0.0 mm/hr 0.00 in0.0 mm
01:41 PM 82.6°F28.1°C 14.9°F-9.5°C 8% 2.1 mph SW3.4 kmh SW 72.4 mph116.5 kmh 30.01 in1016.3 mb 0.00 in0.0 mm 0.00 in/hr0.0 mm/hr 0.00 in0.0 mm
01:31 PM 79.6°F26.4°C 15.5°F-9.2°C 9% 5.5 mph NNE8.9 kmh NNE 41.6 mph66.9 kmh 30.01 in1016.3 mb 0.00 in0.0 mm 0.00 in/hr0.0 mm/hr 0.00 in0.0 mm
01:20 PM 81.9°F27.7°C 17.2°F-8.2°C 9% 0.6 mph WSW1.0 kmh WSW 38.8 mph62.4 kmh 30.01 in1016.3 mb 0.00 in0.0 mm 0.00 in/hr0.0 mm/hr 0.00 in0.0 mm
01:10 PM 82.5°F28.1°C 14.9°F-9.5°C 8% 4.4 mph NW7.1 kmh NW 57.2 mph92.1 kmh 30.02 in1016.6 mb 0.00 in0.0 mm 0.00 in/hr0.0 mm/hr 0.00 in0.0 mm
12:59 PM 83.2°F28.4°C 18.1°F-7.7°C 9% 3.3 mph WSW5.3 kmh WSW 4.4 mph7.1 kmh 30.02 in1016.6 mb 0.00 in0.0 mm 0.00 in/hr0.0 mm/hr 0.00 in0.0 mm
12:49 PM 81.8°F27.7°C 19.6°F-6.9°C 10% Calm Calm -- 30.02 in1016.6 mb 0.00 in0.0 mm 0.00 in/hr0.0 mm/hr 0.00 in0.0 mm
12:38 PM 77.4°F25.2°C 16.3°F-8.7°C 10% 2.0 mph NE3.2 kmh NE 60.8 mph97.8 kmh 30.03 in1016.9 mb 0.00 in0.0 mm 0.00 in/hr0.0 mm/hr 0.00 in0.0 mm
12:28 PM 77.4°F25.2°C 18.5°F-7.5°C 11% 1.6 mph NE2.6 kmh NE 12.0 mph19.3 kmh 30.03 in1016.9 mb 0.00 in0.0 mm 0.00 in/hr0.0 mm/hr 0.00 in0.0 mm
12:17 PM 79.0°F26.1°C 17.4°F-8.1°C 10% 2.6 mph WNW4.2 kmh WNW 56.2 mph90.4 kmh 30.03 in1016.9 mb 0.00 in0.0 mm 0.00 in/hr0.0 mm/hr 0.00 in0.0 mm
12:07 PM 77.5°F25.3°C 18.6°F-7.4°C 11% 4.4 mph N7.1 kmh N 28.0 mph45.1 kmh 30.03 in1016.9 mb 0.00 in0.0 mm 0.00 in/hr0.0 mm/hr 0.00 in0.0 mm
11:56 AM 77.3°F25.2°C 18.4°F-7.6°C 11% 4.4 mph ESE7.1 kmh ESE 6.2 mph10.0 kmh 30.04 in1017.3 mb 0.00 in0.0 mm 0.00 in/hr0.0 mm/hr 0.00 in0.0 mm
11:46 AM 75.3°F24.1°C 16.9°F-8.4°C 11% 4.3 mph NE6.9 kmh NE 17.8 mph28.6 kmh 30.04 in1017.3 mb 0.00 in0.0 mm 0.00 in/hr0.0 mm/hr 0.00 in0.0 mm
11:35 AM 77.4°F25.2°C 18.5°F-7.5°C 11% 5.6 mph NE9.0 kmh NE 38.4 mph61.8 kmh 30.04 in1017.3 mb 0.00 in0.0 mm 0.00 in/hr0.0 mm/hr 0.00 in0.0 mm
11:25 AM 75.6°F24.2°C 19.2°F-7.1°C 12% 3.9 mph ESE6.3 kmh ESE 5.2 mph8.4 kmh 30.04 in1017.3 mb 0.00 in0.0 mm 0.00 in/hr0.0 mm/hr 0.00 in0.0 mm
11:15 AM 74.2°F23.4°C 18.1°F-7.7°C 12% 5.0 mph ESE8.0 kmh ESE 47.8 mph76.9 kmh 30.05 in1017.6 mb 0.00 in0.0 mm 0.00 in/hr0.0 mm/hr 0.00 in0.0 mm
11:04 AM 74.9°F23.8°C 22.4°F-5.3°C 14% 4.9 mph NE7.9 kmh NE 44.2 mph71.1 kmh 30.05 in1017.6 mb 0.00 in0.0 mm 0.00 in/hr0.0 mm/hr 0.00 in0.0 mm
10:54 AM 75.5°F24.2°C 22.9°F-5.1°C 14% 3.6 mph SE5.8 kmh SE 22.2 mph35.7 kmh 30.06 in1017.9 mb 0.00 in0.0 mm 0.00 in/hr0.0 mm/hr 0.00 in0.0 mm
10:43 AM 71.8°F22.1°C 21.6°F-5.8°C 15% 0.9 mph NE1.4 kmh NE 7.0 mph11.3 kmh 30.05 in1017.6 mb 0.00 in0.0 mm 0.00 in/hr0.0 mm/hr 0.00 in0.0 mm
10:33 AM 71.0°F21.7°C 20.9°F-6.2°C 15% 4.3 mph SE6.9 kmh SE 47.4 mph76.3 kmh 30.06 in1017.9 mb 0.00 in0.0 mm 0.00 in/hr0.0 mm/hr 0.00 in0.0 mm
10:22 AM 72.6°F22.6°C 22.2°F-5.4°C 15% 4.4 mph ESE7.1 kmh ESE 9.8 mph15.8 kmh 30.07 in1018.3 mb 0.00 in0.0 mm 0.00 in/hr0.0 mm/hr 0.00 in0.0 mm
10:12 AM 72.7°F22.6°C 23.9°F-4.5°C 16% 5.2 mph ESE8.4 kmh ESE 42.4 mph68.2 kmh 30.07 in1018.3 mb 0.00 in0.0 mm 0.00 in/hr0.0 mm/hr 0.00 in0.0 mm
10:01 AM 70.4°F21.3°C 22.0°F-5.6°C 16% 3.3 mph ESE5.3 kmh ESE 8.8 mph14.2 kmh 30.07 in1018.3 mb 0.00 in0.0 mm 0.00 in/hr0.0 mm/hr 0.00 in0.0 mm
09:51 AM 70.3°F21.3°C 20.4°F-6.4°C 15% 3.3 mph SE5.3 kmh SE 6.6 mph10.6 kmh 30.07 in1018.3 mb 0.00 in0.0 mm 0.00 in/hr0.0 mm/hr 0.00 in0.0 mm
09:40 AM 69.7°F20.9°C 19.9°F-6.7°C 15% Calm Calm 8.0 mph12.9 kmh 30.07 in1018.3 mb 0.00 in0.0 mm 0.00 in/hr0.0 mm/hr 0.00 in0.0 mm
09:30 AM 70.4°F21.3°C 18.8°F-7.3°C 14% 4.1 mph ESE6.6 kmh ESE 36.6 mph58.9 kmh 30.07 in1018.3 mb 0.00 in0.0 mm 0.00 in/hr0.0 mm/hr 0.00 in0.0 mm
09:19 AM 70.0°F21.1°C 20.1°F-6.6°C 15% 1.2 mph SE1.9 kmh SE 4.0 mph6.4 kmh 30.06 in1017.9 mb 0.00 in0.0 mm 0.00 in/hr0.0 mm/hr 0.00 in0.0 mm
09:09 AM 68.5°F20.3°C 15.5°F-9.2°C 13% 5.7 mph ESE9.2 kmh ESE 21.8 mph35.1 kmh 30.06 in1017.9 mb 0.00 in0.0 mm 0.00 in/hr0.0 mm/hr 0.00 in0.0 mm
08:58 AM 71.3°F21.8°C 19.5°F-6.9°C 14% 0.9 mph ESE1.4 kmh ESE 4.0 mph6.4 kmh 30.07 in1018.3 mb 0.00 in0.0 mm 0.00 in/hr0.0 mm/hr 0.00 in0.0 mm
08:48 AM 72.3°F22.4°C 14.6°F-9.7°C 11% Calm Calm 7.0 mph11.3 kmh 30.06 in1017.9 mb 0.00 in0.0 mm 0.00 in/hr0.0 mm/hr 0.00 in0.0 mm
08:37 AM 72.9°F22.7°C 15.1°F-9.4°C 11% Calm Calm -- 30.06 in1017.9 mb 0.00 in0.0 mm 0.00 in/hr0.0 mm/hr 0.00 in0.0 mm
08:27 AM 72.4°F22.4°C 16.7°F-8.5°C 12% Calm Calm 4.0 mph6.4 kmh 30.07 in1018.3 mb 0.00 in0.0 mm 0.00 in/hr0.0 mm/hr 0.00 in0.0 mm
08:17 AM 72.9°F22.7°C 15.0°F-9.4°C 11% 3.0 mph ESE4.8 kmh ESE 4.0 mph6.4 kmh 30.07 in1018.3 mb 0.00 in0.0 mm 0.00 in/hr0.0 mm/hr 0.00 in0.0 mm
08:06 AM 71.0°F21.7°C 15.6°F-9.1°C 12% 1.7 mph NE2.7 kmh NE 6.2 mph10.0 kmh 30.06 in1017.9 mb 0.00 in0.0 mm 0.00 in/hr0.0 mm/hr 0.00 in0.0 mm
07:56 AM 67.5°F19.7°C 18.2°F-7.7°C 15% 4.6 mph SE7.4 kmh SE 6.2 mph10.0 kmh 30.06 in1017.9 mb 0.00 in0.0 mm 0.00 in/hr0.0 mm/hr 0.00 in0.0 mm
07:45 AM 77.0°F25.0°C 13.5°F-10.3°C 9% 2.6 mph ESE4.2 kmh ESE 3.4 mph5.5 kmh 30.06 in1017.9 mb 0.00 in0.0 mm 0.00 in/hr0.0 mm/hr 0.00 in0.0 mm
07:35 AM 83.2°F28.4°C 23.0°F-5.0°C 11% Calm Calm -- 30.06 in1017.9 mb 0.00 in0.0 mm 0.00 in/hr0.0 mm/hr 0.00 in0.0 mm
07:24 AM 81.4°F27.4°C 21.6°F-5.8°C 11% Calm Calm -- 30.06 in1017.9 mb 0.00 in0.0 mm 0.00 in/hr0.0 mm/hr 0.00 in0.0 mm
07:14 AM 79.4°F26.3°C 27.6°F-2.4°C 15% Calm Calm -- 30.06 in1017.9 mb 0.00 in0.0 mm 0.00 in/hr0.0 mm/hr 0.00 in0.0 mm
07:03 AM 76.3°F24.6°C 25.2°F-3.8°C 15% Calm Calm -- 30.06 in1017.9 mb 0.00 in0.0 mm 0.00 in/hr0.0 mm/hr 0.00 in0.0 mm
06:53 AM 70.8°F21.6°C 23.8°F-4.6°C 17% Calm Calm -- 30.06 in1017.9 mb 0.00 in0.0 mm 0.00 in/hr0.0 mm/hr 0.00 in0.0 mm
06:42 AM 66.1°F18.9°C 22.6°F-5.2°C 19% Calm Calm -- 30.05 in1017.6 mb 0.00 in0.0 mm 0.00 in/hr0.0 mm/hr 0.00 in0.0 mm
06:32 AM 59.5°F15.3°C 21.5°F-5.8°C 23% Calm Calm -- 30.05 in1017.6 mb 0.00 in0.0 mm 0.00 in/hr0.0 mm/hr 0.00 in0.0 mm
06:21 AM 54.4°F12.4°C 20.9°F-6.2°C 27% Calm Calm -- 30.05 in1017.6 mb 0.00 in0.0 mm 0.00 in/hr0.0 mm/hr 0.00 in0.0 mm
06:11 AM 49.2°F9.6°C 18.8°F-7.3°C 30% Calm Calm -- 30.05 in1017.6 mb 0.00 in0.0 mm 0.00 in/hr0.0 mm/hr 0.00 in0.0 mm
06:00 AM 44.4°F6.9°C 18.2°F-7.7°C 35% Calm Calm -- 30.05 in1017.6 mb 0.00 in0.0 mm 0.00 in/hr0.0 mm/hr 0.00 in0.0 mm
05:50 AM 43.8°F6.6°C 17.7°F-7.9°C 35% Calm Calm -- 30.05 in1017.6 mb 0.00 in0.0 mm 0.00 in/hr0.0 mm/hr 0.00 in0.0 mm
05:39 AM 42.7°F5.9°C 17.4°F-8.1°C 36% Calm Calm -- 30.05 in1017.6 mb 0.00 in0.0 mm 0.00 in/hr0.0 mm/hr 0.00 in0.0 mm
05:29 AM 42.2°F5.7°C 17.5°F-8.1°C 37% Calm Calm -- 30.04 in1017.3 mb 0.00 in0.0 mm 0.00 in/hr0.0 mm/hr 0.00 in0.0 mm
05:18 AM 42.2°F5.7°C 17.5°F-8.1°C 37% Calm Calm -- 30.04 in1017.3 mb 0.00 in0.0 mm 0.00 in/hr0.0 mm/hr 0.00 in0.0 mm
05:08 AM 42.2°F5.7°C 18.2°F-7.7°C 38% Calm Calm -- 30.04 in1017.3 mb 0.00 in0.0 mm 0.00 in/hr0.0 mm/hr 0.00 in0.0 mm
04:57 AM 42.0°F5.6°C 18.0°F-7.8°C 38% Calm Calm -- 30.03 in1016.9 mb 0.00 in0.0 mm 0.00 in/hr0.0 mm/hr 0.00 in0.0 mm
04:47 AM 41.8°F5.4°C 17.8°F-7.9°C 38% Calm Calm -- 30.04 in1017.3 mb 0.00 in0.0 mm 0.00 in/hr0.0 mm/hr 0.00 in0.0 mm
04:36 AM 42.2°F5.7°C 17.5°F-8.1°C 37% Calm Calm -- 30.03 in1016.9 mb 0.00 in0.0 mm 0.00 in/hr0.0 mm/hr 0.00 in0.0 mm
04:26 AM 42.7°F5.9°C 16.7°F-8.5°C 35% Calm Calm -- 30.03 in1016.9 mb 0.00 in0.0 mm 0.00 in/hr0.0 mm/hr 0.00 in0.0 mm
04:15 AM 43.1°F6.2°C 17.7°F-7.9°C 36% Calm Calm -- 30.02 in1016.6 mb 0.00 in0.0 mm 0.00 in/hr0.0 mm/hr 0.00 in0.0 mm
04:05 AM 42.9°F6.1°C 17.5°F-8.1°C 36% Calm Calm -- 30.02 in1016.6 mb 0.00 in0.0 mm 0.00 in/hr0.0 mm/hr 0.00 in0.0 mm
03:54 AM 43.8°F6.6°C 17.7°F-7.9°C 35% Calm Calm -- 30.02 in1016.6 mb 0.00 in0.0 mm 0.00 in/hr0.0 mm/hr 0.00 in0.0 mm
03:44 AM 43.8°F6.6°C 16.3°F-8.7°C 33% Calm Calm -- 30.02 in1016.6 mb 0.00 in0.0 mm 0.00 in/hr0.0 mm/hr 0.00 in0.0 mm
03:34 AM 44.2°F6.8°C 16.7°F-8.5°C 33% Calm Calm -- 30.02 in1016.6 mb 0.00 in0.0 mm 0.00 in/hr0.0 mm/hr 0.00 in0.0 mm
03:23 AM 45.3°F7.4°C 16.2°F-8.8°C 31% Calm Calm -- 30.03 in1016.9 mb 0.00 in0.0 mm 0.00 in/hr0.0 mm/hr 0.00 in0.0 mm
03:13 AM 45.4°F7.4°C 16.3°F-8.7°C 31% Calm Calm -- 30.02 in1016.6 mb 0.00 in0.0 mm 0.00 in/hr0.0 mm/hr 0.00 in0.0 mm
03:02 AM 45.8°F7.7°C 16.6°F-8.6°C 31% Calm Calm -- 30.02 in1016.6 mb 0.00 in0.0 mm 0.00 in/hr0.0 mm/hr 0.00 in0.0 mm
02:51 AM 46.5°F8.1°C 15.7°F-9.1°C 29% Calm Calm -- 30.02 in1016.6 mb 0.00 in0.0 mm 0.00 in/hr0.0 mm/hr 0.00 in0.0 mm
02:41 AM 47.4°F8.6°C 14.9°F-9.5°C 27% Calm Calm -- 30.02 in1016.6 mb 0.00 in0.0 mm 0.00 in/hr0.0 mm/hr 0.00 in0.0 mm
02:31 AM 49.0°F9.4°C 15.4°F-9.2°C 26% Calm Calm -- 30.02 in1016.6 mb 0.00 in0.0 mm 0.00 in/hr0.0 mm/hr 0.00 in0.0 mm
02:20 AM 49.0°F9.4°C 13.6°F-10.2°C 24% Calm Calm -- 30.01 in1016.3 mb 0.00 in0.0 mm 0.00 in/hr0.0 mm/hr 0.00 in0.0 mm
02:10 AM 50.1°F10.1°C 13.6°F-10.2°C 23% Calm Calm -- 30.02 in1016.6 mb 0.00 in0.0 mm 0.00 in/hr0.0 mm/hr 0.00 in0.0 mm
01:59 AM 51.4°F10.8°C 13.7°F-10.2°C 22% Calm Calm -- 30.02 in1016.6 mb 0.00 in0.0 mm 0.00 in/hr0.0 mm/hr 0.00 in0.0 mm
01:48 AM 50.8°F10.4°C 14.2°F-9.9°C 23% 2.6 mph NW4.2 kmh NW 3.4 mph5.5 kmh 30.01 in1016.3 mb 0.00 in0.0 mm 0.00 in/hr0.0 mm/hr 0.00 in0.0 mm
01:38 AM 52.5°F11.4°C 14.6°F-9.7°C 22% Calm Calm -- 30.02 in1016.6 mb 0.00 in0.0 mm 0.00 in/hr0.0 mm/hr 0.00 in0.0 mm
01:27 AM 53.9°F12.2°C 14.8°F-9.6°C 21% Calm Calm -- 30.01 in1016.3 mb 0.00 in0.0 mm 0.00 in/hr0.0 mm/hr 0.00 in0.0 mm
01:17 AM 54.4°F12.4°C 15.2°F-9.3°C 21% Calm Calm 6.2 mph10.0 kmh 30.01 in1016.3 mb 0.00 in0.0 mm 0.00 in/hr0.0 mm/hr 0.00 in0.0 mm
01:07 AM 54.4°F12.4°C 17.2°F-8.2°C 23% 1.7 mph WNW2.7 kmh WNW 3.0 mph4.8 kmh 30.01 in1016.3 mb 0.00 in0.0 mm 0.00 in/hr0.0 mm/hr 0.00 in0.0 mm
12:56 AM 55.0°F12.8°C 13.4°F-10.3°C 19% Calm Calm 1.6 mph2.6 kmh 30.01 in1016.3 mb 0.00 in0.0 mm 0.00 in/hr0.0 mm/hr 0.00 in0.0 mm
12:46 AM 55.2°F12.9°C 13.6°F-10.2°C 19% 1.2 mph WNW1.9 kmh WNW 4.4 mph7.1 kmh 30.01 in1016.3 mb 0.00 in0.0 mm 0.00 in/hr0.0 mm/hr 0.00 in0.0 mm
12:35 AM 55.5°F13.1°C 13.8°F-10.1°C 19% 2.3 mph WNW3.7 kmh WNW 4.8 mph7.7 kmh 30.01 in1016.3 mb 0.00 in0.0 mm 0.00 in/hr0.0 mm/hr 0.00 in0.0 mm
12:25 AM 54.6°F12.6°C 14.2°F-9.9°C 20% 1.2 mph NW1.9 kmh NW 1.6 mph2.6 kmh 30.00 in1015.9 mb 0.00 in0.0 mm 0.00 in/hr0.0 mm/hr 0.00 in0.0 mm
12:14 AM 55.9°F13.3°C 14.2°F-9.9°C 19% Calm Calm 4.8 mph7.7 kmh 30.01 in1016.3 mb 0.00 in0.0 mm 0.00 in/hr0.0 mm/hr 0.00 in0.0 mm
12:04 AM 55.3°F12.9°C 14.8°F-9.6°C 20% 3.3 mph WNW5.3 kmh WNW 4.4 mph7.1 kmh 30.00 in1015.9 mb 0.00 in0.0 mm 0.00 in/hr0.0 mm/hr 0.00 in0.0 mm